<?xml version="1.0" encoding="UTF-8" standalone="yes"?>
<gpx version="1.1" creator="MagicMaps Tour Explorer"
     xmlns:xsi="http://www.w3.org/2001/XMLSchema-instance"
     xmlns="http://www.topografix.com/GPX/1/1">
  <trk>
    <name>hirschhoernlkopf_s</name>
    <trkseg>
      <trkpt lat="47.606331000" lon="11.432703000">
        <ele>778.1</ele>
        <time>2013-10-14T15:48:16</time>
      </trkpt>
      <trkpt lat="47.606281000" lon="11.432524000">
        <ele>778.7</ele>
        <time>2013-10-14T15:48:35</time>
      </trkpt>
      <trkpt lat="47.606275000" lon="11.432134000">
        <ele>779.1</ele>
        <time>2013-10-14T15:47:23</time>
      </trkpt>
      <trkpt lat="47.606359000" lon="11.431839000">
        <ele>778.5</ele>
        <time>2013-10-14T15:46:56</time>
      </trkpt>
      <trkpt lat="47.606424000" lon="11.431582000">
        <ele>777.7</ele>
        <time>2013-10-14T15:49:06</time>
      </trkpt>
      <trkpt lat="47.606473000" lon="11.431125000">
        <ele>777.0</ele>
        <time>2013-10-14T15:45:51</time>
      </trkpt>
      <trkpt lat="47.606598000" lon="11.430549000">
        <ele>777.6</ele>
        <time>2013-10-14T15:45:21</time>
      </trkpt>
      <trkpt lat="47.606639000" lon="11.430119000">
        <ele>778.3</ele>
        <time>2013-10-14T15:44:59</time>
      </trkpt>
      <trkpt lat="47.606750000" lon="11.429639000">
        <ele>779.3</ele>
        <time>2013-10-14T15:44:33</time>
      </trkpt>
      <trkpt lat="47.606867000" lon="11.429240000">
        <ele>753.4</ele>
        <time>2013-10-14T07:58:41</time>
      </trkpt>
      <trkpt lat="47.607037000" lon="11.428933000">
        <ele>757.5</ele>
        <time>2013-10-14T07:59:01</time>
      </trkpt>
      <trkpt lat="47.607190000" lon="11.428570000">
        <ele>760.0</ele>
        <time>2013-10-14T07:59:21</time>
      </trkpt>
      <trkpt lat="47.607340000" lon="11.428182000">
        <ele>762.9</ele>
        <time>2013-10-14T07:59:41</time>
      </trkpt>
      <trkpt lat="47.607555000" lon="11.427995000">
        <ele>768.5</ele>
        <time>2013-10-14T08:00:01</time>
      </trkpt>
      <trkpt lat="47.607808000" lon="11.427790000">
        <ele>772.6</ele>
        <time>2013-10-14T08:00:21</time>
      </trkpt>
      <trkpt lat="47.608008000" lon="11.427528000">
        <ele>774.5</ele>
        <time>2013-10-14T08:00:41</time>
      </trkpt>
      <trkpt lat="47.608185000" lon="11.427222000">
        <ele>776.6</ele>
        <time>2013-10-14T08:01:01</time>
      </trkpt>
      <trkpt lat="47.608368000" lon="11.426975000">
        <ele>778.3</ele>
        <time>2013-10-14T08:01:21</time>
      </trkpt>
      <trkpt lat="47.608530000" lon="11.426662000">
        <ele>779.6</ele>
        <time>2013-10-14T08:01:41</time>
      </trkpt>
      <trkpt lat="47.608697000" lon="11.426327000">
        <ele>781.9</ele>
        <time>2013-10-14T08:02:01</time>
      </trkpt>
      <trkpt lat="47.608793000" lon="11.425987000">
        <ele>784.0</ele>
        <time>2013-10-14T08:02:21</time>
      </trkpt>
      <trkpt lat="47.608900000" lon="11.425575000">
        <ele>785.1</ele>
        <time>2013-10-14T08:02:41</time>
      </trkpt>
      <trkpt lat="47.609052000" lon="11.425290000">
        <ele>783.1</ele>
        <time>2013-10-14T08:03:01</time>
      </trkpt>
      <trkpt lat="47.609250000" lon="11.425025000">
        <ele>782.6</ele>
        <time>2013-10-14T08:03:21</time>
      </trkpt>
      <trkpt lat="47.609397000" lon="11.424677000">
        <ele>784.0</ele>
        <time>2013-10-14T08:03:41</time>
      </trkpt>
      <trkpt lat="47.609557000" lon="11.424338000">
        <ele>784.2</ele>
        <time>2013-10-14T08:04:01</time>
      </trkpt>
      <trkpt lat="47.609765000" lon="11.424102000">
        <ele>786.1</ele>
        <time>2013-10-14T08:04:21</time>
      </trkpt>
      <trkpt lat="47.609927000" lon="11.423802000">
        <ele>786.5</ele>
        <time>2013-10-14T08:04:41</time>
      </trkpt>
      <trkpt lat="47.610088000" lon="11.423517000">
        <ele>786.9</ele>
        <time>2013-10-14T08:05:01</time>
      </trkpt>
      <trkpt lat="47.610297000" lon="11.423255000">
        <ele>788.3</ele>
        <time>2013-10-14T08:05:21</time>
      </trkpt>
      <trkpt lat="47.610483000" lon="11.422977000">
        <ele>790.1</ele>
        <time>2013-10-14T08:05:41</time>
      </trkpt>
      <trkpt lat="47.610658000" lon="11.422658000">
        <ele>790.6</ele>
        <time>2013-10-14T08:06:01</time>
      </trkpt>
      <trkpt lat="47.610830000" lon="11.422353000">
        <ele>791.0</ele>
        <time>2013-10-14T08:06:21</time>
      </trkpt>
      <trkpt lat="47.610968000" lon="11.422047000">
        <ele>791.9</ele>
        <time>2013-10-14T08:06:41</time>
      </trkpt>
      <trkpt lat="47.611172000" lon="11.421748000">
        <ele>793.3</ele>
        <time>2013-10-14T08:07:01</time>
      </trkpt>
      <trkpt lat="47.611383000" lon="11.421423000">
        <ele>794.1</ele>
        <time>2013-10-14T08:07:22</time>
      </trkpt>
      <trkpt lat="47.611562000" lon="11.421108000">
        <ele>793.2</ele>
        <time>2013-10-14T08:07:42</time>
      </trkpt>
      <trkpt lat="47.611742000" lon="11.420785000">
        <ele>791.4</ele>
        <time>2013-10-14T08:08:02</time>
      </trkpt>
      <trkpt lat="47.611903000" lon="11.420398000">
        <ele>790.2</ele>
        <time>2013-10-14T08:08:24</time>
      </trkpt>
      <trkpt lat="47.612097000" lon="11.420222000">
        <ele>789.5</ele>
        <time>2013-10-14T08:08:45</time>
      </trkpt>
      <trkpt lat="47.612258000" lon="11.420390000">
        <ele>797.6</ele>
        <time>2013-10-14T08:09:14</time>
      </trkpt>
      <trkpt lat="47.612458000" lon="11.420545000">
        <ele>809.6</ele>
        <time>2013-10-14T08:09:41</time>
      </trkpt>
      <trkpt lat="47.612615000" lon="11.420812000">
        <ele>819.2</ele>
        <time>2013-10-14T08:10:01</time>
      </trkpt>
      <trkpt lat="47.612723000" lon="11.421330000">
        <ele>824.5</ele>
        <time>2013-10-14T08:10:28</time>
      </trkpt>
      <trkpt lat="47.612857000" lon="11.421630000">
        <ele>827.6</ele>
        <time>2013-10-14T08:10:48</time>
      </trkpt>
      <trkpt lat="47.613020000" lon="11.421963000">
        <ele>831.2</ele>
        <time>2013-10-14T08:11:10</time>
      </trkpt>
      <trkpt lat="47.613145000" lon="11.422238000">
        <ele>834.3</ele>
        <time>2013-10-14T08:11:30</time>
      </trkpt>
      <trkpt lat="47.613283000" lon="11.422678000">
        <ele>833.3</ele>
        <time>2013-10-14T08:11:50</time>
      </trkpt>
      <trkpt lat="47.613392000" lon="11.423000000">
        <ele>829.0</ele>
        <time>2013-10-14T08:12:10</time>
      </trkpt>
      <trkpt lat="47.613502000" lon="11.423350000">
        <ele>825.7</ele>
        <time>2013-10-14T08:12:30</time>
      </trkpt>
      <trkpt lat="47.613730000" lon="11.423385000">
        <ele>823.3</ele>
        <time>2013-10-14T08:12:50</time>
      </trkpt>
      <trkpt lat="47.613968000" lon="11.423482000">
        <ele>825.2</ele>
        <time>2013-10-14T08:13:10</time>
      </trkpt>
      <trkpt lat="47.614120000" lon="11.423625000">
        <ele>828.9</ele>
        <time>2013-10-14T08:13:30</time>
      </trkpt>
      <trkpt lat="47.614300000" lon="11.423690000">
        <ele>834.1</ele>
        <time>2013-10-14T08:13:54</time>
      </trkpt>
      <trkpt lat="47.614478000" lon="11.423740000">
        <ele>838.8</ele>
        <time>2013-10-14T08:14:21</time>
      </trkpt>
      <trkpt lat="47.614665000" lon="11.423747000">
        <ele>843.5</ele>
        <time>2013-10-14T08:14:48</time>
      </trkpt>
      <trkpt lat="47.614847000" lon="11.423687000">
        <ele>847.9</ele>
        <time>2013-10-14T08:15:14</time>
      </trkpt>
      <trkpt lat="47.615025000" lon="11.423577000">
        <ele>852.8</ele>
        <time>2013-10-14T08:15:39</time>
      </trkpt>
      <trkpt lat="47.615165000" lon="11.423408000">
        <ele>859.1</ele>
        <time>2013-10-14T08:16:07</time>
      </trkpt>
      <trkpt lat="47.615282000" lon="11.423202000">
        <ele>863.4</ele>
        <time>2013-10-14T08:16:31</time>
      </trkpt>
      <trkpt lat="47.615382000" lon="11.422963000">
        <ele>866.6</ele>
        <time>2013-10-14T08:16:52</time>
      </trkpt>
      <trkpt lat="47.615517000" lon="11.422750000">
        <ele>869.1</ele>
        <time>2013-10-14T08:17:12</time>
      </trkpt>
      <trkpt lat="47.615688000" lon="11.422637000">
        <ele>873.3</ele>
        <time>2013-10-14T08:17:37</time>
      </trkpt>
      <trkpt lat="47.615848000" lon="11.422505000">
        <ele>877.6</ele>
        <time>2013-10-14T08:18:02</time>
      </trkpt>
      <trkpt lat="47.616023000" lon="11.422425000">
        <ele>881.1</ele>
        <time>2013-10-14T08:18:23</time>
      </trkpt>
      <trkpt lat="47.616203000" lon="11.422423000">
        <ele>884.4</ele>
        <time>2013-10-14T08:18:49</time>
      </trkpt>
      <trkpt lat="47.616383000" lon="11.422423000">
        <ele>888.0</ele>
        <time>2013-10-14T08:19:14</time>
      </trkpt>
      <trkpt lat="47.616573000" lon="11.422388000">
        <ele>890.4</ele>
        <time>2013-10-14T08:19:35</time>
      </trkpt>
      <trkpt lat="47.616888000" lon="11.422177000">
        <ele>895.9</ele>
        <time>2013-10-14T08:20:09</time>
      </trkpt>
      <trkpt lat="47.617005000" lon="11.421910000">
        <ele>898.8</ele>
        <time>2013-10-14T08:20:29</time>
      </trkpt>
      <trkpt lat="47.617165000" lon="11.421595000">
        <ele>899.4</ele>
        <time>2013-10-14T08:20:49</time>
      </trkpt>
      <trkpt lat="47.617222000" lon="11.421255000">
        <ele>900.2</ele>
        <time>2013-10-14T08:21:09</time>
      </trkpt>
      <trkpt lat="47.617142000" lon="11.420912000">
        <ele>902.9</ele>
        <time>2013-10-14T08:21:30</time>
      </trkpt>
      <trkpt lat="47.617080000" lon="11.420613000">
        <ele>906.1</ele>
        <time>2013-10-14T08:21:50</time>
      </trkpt>
      <trkpt lat="47.617082000" lon="11.420343000">
        <ele>908.9</ele>
        <time>2013-10-14T08:22:10</time>
      </trkpt>
      <trkpt lat="47.617050000" lon="11.420065000">
        <ele>913.2</ele>
        <time>2013-10-14T08:22:35</time>
      </trkpt>
      <trkpt lat="47.617017000" lon="11.419793000">
        <ele>917.5</ele>
        <time>2013-10-14T08:22:59</time>
      </trkpt>
      <trkpt lat="47.617040000" lon="11.419518000">
        <ele>920.1</ele>
        <time>2013-10-14T08:23:20</time>
      </trkpt>
      <trkpt lat="47.617177000" lon="11.419268000">
        <ele>922.0</ele>
        <time>2013-10-14T08:23:40</time>
      </trkpt>
      <trkpt lat="47.617337000" lon="11.419027000">
        <ele>924.3</ele>
        <time>2013-10-14T08:24:00</time>
      </trkpt>
      <trkpt lat="47.617512000" lon="11.418770000">
        <ele>926.0</ele>
        <time>2013-10-14T08:24:20</time>
      </trkpt>
      <trkpt lat="47.617667000" lon="11.418523000">
        <ele>927.7</ele>
        <time>2013-10-14T08:24:40</time>
      </trkpt>
      <trkpt lat="47.617840000" lon="11.418262000">
        <ele>929.3</ele>
        <time>2013-10-14T08:25:00</time>
      </trkpt>
      <trkpt lat="47.618020000" lon="11.418065000">
        <ele>931.9</ele>
        <time>2013-10-14T08:25:22</time>
      </trkpt>
      <trkpt lat="47.618440000" lon="11.417780000">
        <ele>937.2</ele>
        <time>2013-10-14T08:26:07</time>
      </trkpt>
      <trkpt lat="47.618563000" lon="11.417397000">
        <ele>940.5</ele>
        <time>2013-10-14T08:26:32</time>
      </trkpt>
      <trkpt lat="47.618562000" lon="11.417053000">
        <ele>943.2</ele>
        <time>2013-10-14T08:26:52</time>
      </trkpt>
      <trkpt lat="47.618640000" lon="11.416782000">
        <ele>947.8</ele>
        <time>2013-10-14T08:27:28</time>
      </trkpt>
      <trkpt lat="47.618737000" lon="11.416555000">
        <ele>949.9</ele>
        <time>2013-10-14T08:27:49</time>
      </trkpt>
      <trkpt lat="47.618822000" lon="11.416317000">
        <ele>951.1</ele>
        <time>2013-10-14T08:28:09</time>
      </trkpt>
      <trkpt lat="47.618845000" lon="11.416052000">
        <ele>954.1</ele>
        <time>2013-10-14T08:28:31</time>
      </trkpt>
      <trkpt lat="47.618795000" lon="11.415788000">
        <ele>957.3</ele>
        <time>2013-10-14T08:28:52</time>
      </trkpt>
      <trkpt lat="47.618747000" lon="11.415530000">
        <ele>960.4</ele>
        <time>2013-10-14T08:29:15</time>
      </trkpt>
      <trkpt lat="47.618783000" lon="11.415267000">
        <ele>962.8</ele>
        <time>2013-10-14T08:29:35</time>
      </trkpt>
      <trkpt lat="47.618907000" lon="11.415062000">
        <ele>965.2</ele>
        <time>2013-10-14T08:29:56</time>
      </trkpt>
      <trkpt lat="47.619062000" lon="11.414922000">
        <ele>970.8</ele>
        <time>2013-10-14T08:30:49</time>
      </trkpt>
      <trkpt lat="47.619295000" lon="11.414858000">
        <ele>975.0</ele>
        <time>2013-10-14T08:31:32</time>
      </trkpt>
      <trkpt lat="47.619417000" lon="11.415067000">
        <ele>979.2</ele>
        <time>2013-10-14T08:32:20</time>
      </trkpt>
      <trkpt lat="47.619572000" lon="11.415203000">
        <ele>983.1</ele>
        <time>2013-10-14T08:32:53</time>
      </trkpt>
      <trkpt lat="47.619730000" lon="11.415332000">
        <ele>989.3</ele>
        <time>2013-10-14T08:33:30</time>
      </trkpt>
      <trkpt lat="47.619895000" lon="11.415470000">
        <ele>994.2</ele>
        <time>2013-10-14T08:34:06</time>
      </trkpt>
      <trkpt lat="47.620082000" lon="11.415485000">
        <ele>997.5</ele>
        <time>2013-10-14T08:34:32</time>
      </trkpt>
      <trkpt lat="47.620143000" lon="11.415228000">
        <ele>1002.9</ele>
        <time>2013-10-14T08:35:11</time>
      </trkpt>
      <trkpt lat="47.620242000" lon="11.414987000">
        <ele>1008.3</ele>
        <time>2013-10-14T08:35:48</time>
      </trkpt>
      <trkpt lat="47.620380000" lon="11.415160000">
        <ele>1015.1</ele>
        <time>2013-10-14T08:36:34</time>
      </trkpt>
      <trkpt lat="47.620565000" lon="11.415143000">
        <ele>1019.6</ele>
        <time>2013-10-14T08:37:04</time>
      </trkpt>
      <trkpt lat="47.620727000" lon="11.415023000">
        <ele>1027.7</ele>
        <time>2013-10-14T08:37:54</time>
      </trkpt>
      <trkpt lat="47.620898000" lon="11.415127000">
        <ele>1034.0</ele>
        <time>2013-10-14T08:38:31</time>
      </trkpt>
      <trkpt lat="47.621033000" lon="11.414928000">
        <ele>1039.0</ele>
        <time>2013-10-14T08:39:01</time>
      </trkpt>
      <trkpt lat="47.621177000" lon="11.415095000">
        <ele>1045.3</ele>
        <time>2013-10-14T08:39:44</time>
      </trkpt>
      <trkpt lat="47.621355000" lon="11.415148000">
        <ele>1051.1</ele>
        <time>2013-10-14T08:40:20</time>
      </trkpt>
      <trkpt lat="47.621520000" lon="11.415268000">
        <ele>1056.4</ele>
        <time>2013-10-14T08:41:13</time>
      </trkpt>
      <trkpt lat="47.621660000" lon="11.415447000">
        <ele>1059.1</ele>
        <time>2013-10-14T08:42:31</time>
      </trkpt>
      <trkpt lat="47.621842000" lon="11.415453000">
        <ele>1062.1</ele>
        <time>2013-10-14T08:43:07</time>
      </trkpt>
      <trkpt lat="47.622045000" lon="11.415528000">
        <ele>1069.8</ele>
        <time>2013-10-14T08:44:49</time>
      </trkpt>
      <trkpt lat="47.622267000" lon="11.415292000">
        <ele>1072.1</ele>
        <time>2013-10-14T08:45:53</time>
      </trkpt>
      <trkpt lat="47.622310000" lon="11.415552000">
        <ele>1075.4</ele>
        <time>2013-10-14T08:46:49</time>
      </trkpt>
      <trkpt lat="47.622478000" lon="11.415362000">
        <ele>1076.8</ele>
        <time>2013-10-14T08:47:25</time>
      </trkpt>
      <trkpt lat="47.622857000" lon="11.415482000">
        <ele>1088.2</ele>
        <time>2013-10-14T08:50:05</time>
      </trkpt>
      <trkpt lat="47.622775000" lon="11.415787000">
        <ele>1100.2</ele>
        <time>2013-10-14T08:52:35</time>
      </trkpt>
      <trkpt lat="47.622957000" lon="11.415940000">
        <ele>1101.9</ele>
        <time>2013-10-14T08:52:59</time>
      </trkpt>
      <trkpt lat="47.623225000" lon="11.415830000">
        <ele>1103.2</ele>
        <time>2013-10-14T08:53:31</time>
      </trkpt>
      <trkpt lat="47.622985000" lon="11.416082000">
        <ele>1118.8</ele>
        <time>2013-10-14T08:55:41</time>
      </trkpt>
      <trkpt lat="47.622863000" lon="11.416502000">
        <ele>1123.7</ele>
        <time>2013-10-14T08:56:33</time>
      </trkpt>
      <trkpt lat="47.623012000" lon="11.416830000">
        <ele>1128.8</ele>
        <time>2013-10-14T08:57:00</time>
      </trkpt>
      <trkpt lat="47.623115000" lon="11.417062000">
        <ele>1135.4</ele>
        <time>2013-10-14T08:57:30</time>
      </trkpt>
      <trkpt lat="47.623327000" lon="11.416923000">
        <ele>1138.3</ele>
        <time>2013-10-14T08:58:08</time>
      </trkpt>
      <trkpt lat="47.623395000" lon="11.416635000">
        <ele>1144.5</ele>
        <time>2013-10-14T08:59:22</time>
      </trkpt>
      <trkpt lat="47.623688000" lon="11.416710000">
        <ele>1168.5</ele>
        <time>2013-10-14T09:01:42</time>
      </trkpt>
      <trkpt lat="47.623552000" lon="11.416915000">
        <ele>1177.9</ele>
        <time>2013-10-14T09:02:15</time>
      </trkpt>
      <trkpt lat="47.623883000" lon="11.417010000">
        <ele>1185.9</ele>
        <time>2013-10-14T09:03:13</time>
      </trkpt>
      <trkpt lat="47.624062000" lon="11.416817000">
        <ele>1189.3</ele>
        <time>2013-10-14T09:03:53</time>
      </trkpt>
      <trkpt lat="47.624208000" lon="11.416650000">
        <ele>1192.3</ele>
        <time>2013-10-14T09:04:25</time>
      </trkpt>
      <trkpt lat="47.624057000" lon="11.416930000">
        <ele>1224.0</ele>
        <time>2013-10-14T09:06:22</time>
      </trkpt>
      <trkpt lat="47.624293000" lon="11.416923000">
        <ele>1228.4</ele>
        <time>2013-10-14T09:06:56</time>
      </trkpt>
      <trkpt lat="47.624462000" lon="11.416723000">
        <ele>1235.5</ele>
        <time>2013-10-14T09:07:47</time>
      </trkpt>
      <trkpt lat="47.624358000" lon="11.416995000">
        <ele>1246.5</ele>
        <time>2013-10-14T09:08:21</time>
      </trkpt>
      <trkpt lat="47.624558000" lon="11.416968000">
        <ele>1252.5</ele>
        <time>2013-10-14T09:08:56</time>
      </trkpt>
      <trkpt lat="47.624602000" lon="11.417293000">
        <ele>1279.1</ele>
        <time>2013-10-14T09:10:39</time>
      </trkpt>
      <trkpt lat="47.624610000" lon="11.417587000">
        <ele>1290.1</ele>
        <time>2013-10-14T09:11:21</time>
      </trkpt>
      <trkpt lat="47.624860000" lon="11.417663000">
        <ele>1311.3</ele>
        <time>2013-10-14T09:13:04</time>
      </trkpt>
      <trkpt lat="47.624892000" lon="11.417950000">
        <ele>1324.9</ele>
        <time>2013-10-14T09:13:51</time>
      </trkpt>
      <trkpt lat="47.625053000" lon="11.418077000">
        <ele>1342.5</ele>
        <time>2013-10-14T09:14:34</time>
      </trkpt>
      <trkpt lat="47.625148000" lon="11.418303000">
        <ele>1353.8</ele>
        <time>2013-10-14T09:15:15</time>
      </trkpt>
      <trkpt lat="47.625325000" lon="11.418188000">
        <ele>1361.2</ele>
        <time>2013-10-14T09:15:57</time>
      </trkpt>
      <trkpt lat="47.625352000" lon="11.417840000">
        <ele>1365.0</ele>
        <time>2013-10-14T09:16:31</time>
      </trkpt>
      <trkpt lat="47.625370000" lon="11.417535000">
        <ele>1367.5</ele>
        <time>2013-10-14T09:16:57</time>
      </trkpt>
      <trkpt lat="47.625438000" lon="11.417230000">
        <ele>1369.7</ele>
        <time>2013-10-14T09:17:17</time>
      </trkpt>
      <trkpt lat="47.625472000" lon="11.416953000">
        <ele>1371.8</ele>
        <time>2013-10-14T09:17:37</time>
      </trkpt>
      <trkpt lat="47.625555000" lon="11.416562000">
        <ele>1375.1</ele>
        <time>2013-10-14T09:18:09</time>
      </trkpt>
      <trkpt lat="47.625545000" lon="11.416282000">
        <ele>1375.7</ele>
        <time>2013-10-14T09:18:33</time>
      </trkpt>
      <trkpt lat="47.625602000" lon="11.415997000">
        <ele>1377.2</ele>
        <time>2013-10-14T09:18:53</time>
      </trkpt>
      <trkpt lat="47.625647000" lon="11.415733000">
        <ele>1378.9</ele>
        <time>2013-10-14T09:19:13</time>
      </trkpt>
      <trkpt lat="47.625638000" lon="11.415423000">
        <ele>1380.3</ele>
        <time>2013-10-14T09:19:33</time>
      </trkpt>
      <trkpt lat="47.625687000" lon="11.415123000">
        <ele>1381.6</ele>
        <time>2013-10-14T09:19:56</time>
      </trkpt>
      <trkpt lat="47.625715000" lon="11.414808000">
        <ele>1383.3</ele>
        <time>2013-10-14T09:20:16</time>
      </trkpt>
      <trkpt lat="47.625748000" lon="11.414547000">
        <ele>1387.1</ele>
        <time>2013-10-14T09:20:41</time>
      </trkpt>
      <trkpt lat="47.625788000" lon="11.414277000">
        <ele>1390.4</ele>
        <time>2013-10-14T09:21:05</time>
      </trkpt>
      <trkpt lat="47.625915000" lon="11.414082000">
        <ele>1393.9</ele>
        <time>2013-10-14T09:21:35</time>
      </trkpt>
      <trkpt lat="47.625840000" lon="11.413793000">
        <ele>1395.7</ele>
        <time>2013-10-14T09:21:55</time>
      </trkpt>
      <trkpt lat="47.625840000" lon="11.413498000">
        <ele>1397.2</ele>
        <time>2013-10-14T09:22:15</time>
      </trkpt>
      <trkpt lat="47.625827000" lon="11.413207000">
        <ele>1398.6</ele>
        <time>2013-10-14T09:22:35</time>
      </trkpt>
      <trkpt lat="47.625857000" lon="11.412938000">
        <ele>1400.7</ele>
        <time>2013-10-14T09:22:57</time>
      </trkpt>
      <trkpt lat="47.625913000" lon="11.412677000">
        <ele>1403.0</ele>
        <time>2013-10-14T09:23:19</time>
      </trkpt>
      <trkpt lat="47.625987000" lon="11.412415000">
        <ele>1404.8</ele>
        <time>2013-10-14T09:23:43</time>
      </trkpt>
      <trkpt lat="47.625997000" lon="11.412140000">
        <ele>1406.6</ele>
        <time>2013-10-14T09:24:04</time>
      </trkpt>
      <trkpt lat="47.626007000" lon="11.411865000">
        <ele>1408.1</ele>
        <time>2013-10-14T09:24:35</time>
      </trkpt>
      <trkpt lat="47.626068000" lon="11.411605000">
        <ele>1409.0</ele>
        <time>2013-10-14T09:24:56</time>
      </trkpt>
      <trkpt lat="47.626118000" lon="11.411330000">
        <ele>1410.0</ele>
        <time>2013-10-14T09:25:16</time>
      </trkpt>
      <trkpt lat="47.626098000" lon="11.411058000">
        <ele>1412.1</ele>
        <time>2013-10-14T09:25:41</time>
      </trkpt>
      <trkpt lat="47.626178000" lon="11.410820000">
        <ele>1415.7</ele>
        <time>2013-10-14T09:26:09</time>
      </trkpt>
      <trkpt lat="47.626293000" lon="11.410615000">
        <ele>1424.1</ele>
        <time>2013-10-14T09:28:39</time>
      </trkpt>
      <trkpt lat="47.626403000" lon="11.410398000">
        <ele>1429.0</ele>
        <time>2013-10-14T09:29:13</time>
      </trkpt>
      <trkpt lat="47.626492000" lon="11.410158000">
        <ele>1435.8</ele>
        <time>2013-10-14T09:29:49</time>
      </trkpt>
      <trkpt lat="47.626617000" lon="11.409960000">
        <ele>1442.2</ele>
        <time>2013-10-14T09:30:20</time>
      </trkpt>
      <trkpt lat="47.626712000" lon="11.409730000">
        <ele>1450.0</ele>
        <time>2013-10-14T09:30:57</time>
      </trkpt>
      <trkpt lat="47.626818000" lon="11.409513000">
        <ele>1457.4</ele>
        <time>2013-10-14T09:31:31</time>
      </trkpt>
      <trkpt lat="47.626992000" lon="11.409425000">
        <ele>1463.9</ele>
        <time>2013-10-14T09:32:05</time>
      </trkpt>
      <trkpt lat="47.627090000" lon="11.409200000">
        <ele>1473.5</ele>
        <time>2013-10-14T09:32:47</time>
      </trkpt>
      <trkpt lat="47.627137000" lon="11.408935000">
        <ele>1480.2</ele>
        <time>2013-10-14T09:33:19</time>
      </trkpt>
      <trkpt lat="47.627220000" lon="11.408690000">
        <ele>1484.7</ele>
        <time>2013-10-14T09:33:43</time>
      </trkpt>
      <trkpt lat="47.627320000" lon="11.408457000">
        <ele>1488.6</ele>
        <time>2013-10-14T09:34:05</time>
      </trkpt>
      <trkpt lat="47.627430000" lon="11.408235000">
        <ele>1490.9</ele>
        <time>2013-10-14T09:34:33</time>
      </trkpt>
      <trkpt lat="47.627492000" lon="11.407978000">
        <ele>1494.1</ele>
        <time>2013-10-14T09:35:00</time>
      </trkpt>
      <trkpt lat="47.627520000" lon="11.407712000">
        <ele>1497.3</ele>
        <time>2013-10-14T09:35:25</time>
      </trkpt>
      <trkpt lat="47.627543000" lon="11.407445000">
        <ele>1500.9</ele>
        <time>2013-10-14T09:35:57</time>
      </trkpt>
      <trkpt lat="47.627550000" lon="11.407168000">
        <ele>1501.8</ele>
        <time>2013-10-14T09:36:18</time>
      </trkpt>
      <trkpt lat="47.627555000" lon="11.406883000">
        <ele>1504.2</ele>
        <time>2013-10-14T09:36:44</time>
      </trkpt>
      <trkpt lat="47.627550000" lon="11.406615000">
        <ele>1506.7</ele>
        <time>2013-10-14T09:37:11</time>
      </trkpt>
      <trkpt lat="47.627495000" lon="11.406358000">
        <ele>1509.2</ele>
        <time>2013-10-14T09:37:36</time>
      </trkpt>
      <trkpt lat="47.627550000" lon="11.406615000">
        <ele>1515.8</ele>
        <time>2013-10-14T09:54:56</time>
      </trkpt>
      <trkpt lat="47.627538000" lon="11.406882000">
        <ele>1514.4</ele>
        <time>2013-10-14T09:55:18</time>
      </trkpt>
      <trkpt lat="47.627540000" lon="11.407162000">
        <ele>1511.7</ele>
        <time>2013-10-14T09:55:43</time>
      </trkpt>
      <trkpt lat="47.627527000" lon="11.407457000">
        <ele>1508.8</ele>
        <time>2013-10-14T09:56:03</time>
      </trkpt>
      <trkpt lat="47.627483000" lon="11.407720000">
        <ele>1504.8</ele>
        <time>2013-10-14T09:56:24</time>
      </trkpt>
      <trkpt lat="47.627455000" lon="11.407988000">
        <ele>1500.6</ele>
        <time>2013-10-14T09:56:46</time>
      </trkpt>
      <trkpt lat="47.627383000" lon="11.408240000">
        <ele>1496.0</ele>
        <time>2013-10-14T09:57:10</time>
      </trkpt>
      <trkpt lat="47.627257000" lon="11.408445000">
        <ele>1491.7</ele>
        <time>2013-10-14T09:57:32</time>
      </trkpt>
      <trkpt lat="47.627167000" lon="11.408708000">
        <ele>1489.2</ele>
        <time>2013-10-14T09:57:52</time>
      </trkpt>
      <trkpt lat="47.627092000" lon="11.408958000">
        <ele>1486.4</ele>
        <time>2013-10-14T09:58:13</time>
      </trkpt>
      <trkpt lat="47.627055000" lon="11.409220000">
        <ele>1480.2</ele>
        <time>2013-10-14T09:58:38</time>
      </trkpt>
      <trkpt lat="47.626950000" lon="11.409438000">
        <ele>1472.6</ele>
        <time>2013-10-14T09:59:11</time>
      </trkpt>
      <trkpt lat="47.626773000" lon="11.409507000">
        <ele>1466.2</ele>
        <time>2013-10-14T09:59:39</time>
      </trkpt>
      <trkpt lat="47.626665000" lon="11.409728000">
        <ele>1460.2</ele>
        <time>2013-10-14T10:00:07</time>
      </trkpt>
      <trkpt lat="47.626548000" lon="11.409945000">
        <ele>1452.0</ele>
        <time>2013-10-14T10:00:39</time>
      </trkpt>
      <trkpt lat="47.626463000" lon="11.410182000">
        <ele>1445.7</ele>
        <time>2013-10-14T10:01:05</time>
      </trkpt>
      <trkpt lat="47.626350000" lon="11.410392000">
        <ele>1440.6</ele>
        <time>2013-10-14T10:01:33</time>
      </trkpt>
      <trkpt lat="47.626253000" lon="11.410620000">
        <ele>1436.4</ele>
        <time>2013-10-14T10:02:00</time>
      </trkpt>
      <trkpt lat="47.626165000" lon="11.410855000">
        <ele>1427.7</ele>
        <time>2013-10-14T10:02:36</time>
      </trkpt>
      <trkpt lat="47.626085000" lon="11.411097000">
        <ele>1423.7</ele>
        <time>2013-10-14T10:02:59</time>
      </trkpt>
      <trkpt lat="47.626093000" lon="11.411375000">
        <ele>1418.2</ele>
        <time>2013-10-14T10:03:21</time>
      </trkpt>
      <trkpt lat="47.626038000" lon="11.411647000">
        <ele>1414.7</ele>
        <time>2013-10-14T10:03:41</time>
      </trkpt>
      <trkpt lat="47.625967000" lon="11.411895000">
        <ele>1412.0</ele>
        <time>2013-10-14T10:04:01</time>
      </trkpt>
      <trkpt lat="47.625987000" lon="11.412192000">
        <ele>1411.2</ele>
        <time>2013-10-14T10:04:21</time>
      </trkpt>
      <trkpt lat="47.625935000" lon="11.412450000">
        <ele>1410.4</ele>
        <time>2013-10-14T10:04:42</time>
      </trkpt>
      <trkpt lat="47.625770000" lon="11.412563000">
        <ele>1404.4</ele>
        <time>2013-10-14T10:05:10</time>
      </trkpt>
      <trkpt lat="47.625597000" lon="11.412492000">
        <ele>1392.1</ele>
        <time>2013-10-14T10:06:02</time>
      </trkpt>
      <trkpt lat="47.625577000" lon="11.412220000">
        <ele>1388.4</ele>
        <time>2013-10-14T10:06:56</time>
      </trkpt>
      <trkpt lat="47.625600000" lon="11.411955000">
        <ele>1388.0</ele>
        <time>2013-10-14T10:07:18</time>
      </trkpt>
      <trkpt lat="47.625625000" lon="11.411690000">
        <ele>1387.5</ele>
        <time>2013-10-14T10:07:39</time>
      </trkpt>
      <trkpt lat="47.625610000" lon="11.411423000">
        <ele>1387.1</ele>
        <time>2013-10-14T10:07:59</time>
      </trkpt>
      <trkpt lat="47.625562000" lon="11.411162000">
        <ele>1387.7</ele>
        <time>2013-10-14T10:09:02</time>
      </trkpt>
      <trkpt lat="47.625520000" lon="11.410895000">
        <ele>1385.8</ele>
        <time>2013-10-14T10:09:32</time>
      </trkpt>
      <trkpt lat="47.625513000" lon="11.410625000">
        <ele>1384.0</ele>
        <time>2013-10-14T10:09:59</time>
      </trkpt>
      <trkpt lat="47.625502000" lon="11.410353000">
        <ele>1381.6</ele>
        <time>2013-10-14T10:10:24</time>
      </trkpt>
      <trkpt lat="47.625497000" lon="11.410062000">
        <ele>1378.6</ele>
        <time>2013-10-14T10:10:53</time>
      </trkpt>
      <trkpt lat="47.625520000" lon="11.409793000">
        <ele>1376.8</ele>
        <time>2013-10-14T10:11:19</time>
      </trkpt>
      <trkpt lat="47.625480000" lon="11.409532000">
        <ele>1375.1</ele>
        <time>2013-10-14T10:12:12</time>
      </trkpt>
      <trkpt lat="47.625438000" lon="11.409272000">
        <ele>1373.9</ele>
        <time>2013-10-14T10:12:37</time>
      </trkpt>
      <trkpt lat="47.625398000" lon="11.409012000">
        <ele>1372.6</ele>
        <time>2013-10-14T10:13:12</time>
      </trkpt>
      <trkpt lat="47.625355000" lon="11.408748000">
        <ele>1371.2</ele>
        <time>2013-10-14T10:13:36</time>
      </trkpt>
      <trkpt lat="47.625312000" lon="11.408477000">
        <ele>1369.4</ele>
        <time>2013-10-14T10:14:06</time>
      </trkpt>
      <trkpt lat="47.625317000" lon="11.408205000">
        <ele>1367.4</ele>
        <time>2013-10-14T10:14:38</time>
      </trkpt>
      <trkpt lat="47.625263000" lon="11.407915000">
        <ele>1365.2</ele>
        <time>2013-10-14T10:15:01</time>
      </trkpt>
      <trkpt lat="47.625152000" lon="11.407570000">
        <ele>1362.2</ele>
        <time>2013-10-14T10:15:42</time>
      </trkpt>
      <trkpt lat="47.625107000" lon="11.407265000">
        <ele>1359.5</ele>
        <time>2013-10-14T10:16:11</time>
      </trkpt>
      <trkpt lat="47.624922000" lon="11.406835000">
        <ele>1355.2</ele>
        <time>2013-10-14T10:16:52</time>
      </trkpt>
      <trkpt lat="47.624927000" lon="11.406568000">
        <ele>1351.8</ele>
        <time>2013-10-14T10:17:21</time>
      </trkpt>
      <trkpt lat="47.624918000" lon="11.406297000">
        <ele>1347.7</ele>
        <time>2013-10-14T10:17:46</time>
      </trkpt>
      <trkpt lat="47.624952000" lon="11.406032000">
        <ele>1343.7</ele>
        <time>2013-10-14T10:18:07</time>
      </trkpt>
      <trkpt lat="47.625003000" lon="11.405747000">
        <ele>1337.7</ele>
        <time>2013-10-14T10:18:37</time>
      </trkpt>
      <trkpt lat="47.624992000" lon="11.405373000">
        <ele>1334.3</ele>
        <time>2013-10-14T10:19:15</time>
      </trkpt>
      <trkpt lat="47.624998000" lon="11.405008000">
        <ele>1331.1</ele>
        <time>2013-10-14T10:19:49</time>
      </trkpt>
      <trkpt lat="47.625047000" lon="11.404727000">
        <ele>1327.7</ele>
        <time>2013-10-14T10:20:16</time>
      </trkpt>
      <trkpt lat="47.625102000" lon="11.404467000">
        <ele>1324.4</ele>
        <time>2013-10-14T10:20:40</time>
      </trkpt>
      <trkpt lat="47.625158000" lon="11.404205000">
        <ele>1319.7</ele>
        <time>2013-10-14T10:21:06</time>
      </trkpt>
      <trkpt lat="47.625212000" lon="11.403947000">
        <ele>1316.8</ele>
        <time>2013-10-14T10:21:30</time>
      </trkpt>
      <trkpt lat="47.625260000" lon="11.403650000">
        <ele>1313.0</ele>
        <time>2013-10-14T10:21:58</time>
      </trkpt>
      <trkpt lat="47.625252000" lon="11.403352000">
        <ele>1310.3</ele>
        <time>2013-10-14T10:22:24</time>
      </trkpt>
      <trkpt lat="47.625267000" lon="11.403085000">
        <ele>1306.5</ele>
        <time>2013-10-14T10:22:50</time>
      </trkpt>
      <trkpt lat="47.625353000" lon="11.402847000">
        <ele>1298.1</ele>
        <time>2013-10-14T10:23:21</time>
      </trkpt>
      <trkpt lat="47.625435000" lon="11.402595000">
        <ele>1291.7</ele>
        <time>2013-10-14T10:23:45</time>
      </trkpt>
      <trkpt lat="47.625458000" lon="11.402330000">
        <ele>1286.8</ele>
        <time>2013-10-14T10:24:11</time>
      </trkpt>
      <trkpt lat="47.625523000" lon="11.402017000">
        <ele>1283.5</ele>
        <time>2013-10-14T10:24:46</time>
      </trkpt>
      <trkpt lat="47.625573000" lon="11.401757000">
        <ele>1279.6</ele>
        <time>2013-10-14T10:25:22</time>
      </trkpt>
      <trkpt lat="47.625753000" lon="11.401657000">
        <ele>1276.1</ele>
        <time>2013-10-14T10:25:55</time>
      </trkpt>
      <trkpt lat="47.625937000" lon="11.401493000">
        <ele>1274.2</ele>
        <time>2013-10-14T10:26:46</time>
      </trkpt>
      <trkpt lat="47.626107000" lon="11.401330000">
        <ele>1271.9</ele>
        <time>2013-10-14T10:27:09</time>
      </trkpt>
      <trkpt lat="47.626230000" lon="11.401133000">
        <ele>1271.6</ele>
        <time>2013-10-14T10:27:35</time>
      </trkpt>
      <trkpt lat="47.626412000" lon="11.401165000">
        <ele>1254.0</ele>
        <time>2013-10-14T10:32:53</time>
      </trkpt>
      <trkpt lat="47.626660000" lon="11.401032000">
        <ele>1256.7</ele>
        <time>2013-10-14T10:33:46</time>
      </trkpt>
      <trkpt lat="47.626837000" lon="11.400940000">
        <ele>1255.7</ele>
        <time>2013-10-14T10:34:37</time>
      </trkpt>
      <trkpt lat="47.626982000" lon="11.400768000">
        <ele>1255.4</ele>
        <time>2013-10-14T10:35:20</time>
      </trkpt>
      <trkpt lat="47.627095000" lon="11.400523000">
        <ele>1256.0</ele>
        <time>2013-10-14T10:36:13</time>
      </trkpt>
      <trkpt lat="47.627225000" lon="11.400328000">
        <ele>1256.2</ele>
        <time>2013-10-14T10:37:03</time>
      </trkpt>
      <trkpt lat="47.627312000" lon="11.400075000">
        <ele>1253.8</ele>
        <time>2013-10-14T10:37:36</time>
      </trkpt>
      <trkpt lat="47.627430000" lon="11.399863000">
        <ele>1253.4</ele>
        <time>2013-10-14T10:37:59</time>
      </trkpt>
      <trkpt lat="47.627535000" lon="11.399645000">
        <ele>1251.9</ele>
        <time>2013-10-14T10:38:37</time>
      </trkpt>
      <trkpt lat="47.627627000" lon="11.399408000">
        <ele>1248.2</ele>
        <time>2013-10-14T10:39:21</time>
      </trkpt>
      <trkpt lat="47.627712000" lon="11.399162000">
        <ele>1246.3</ele>
        <time>2013-10-14T10:39:49</time>
      </trkpt>
      <trkpt lat="47.627828000" lon="11.398953000">
        <ele>1244.3</ele>
        <time>2013-10-14T10:40:24</time>
      </trkpt>
      <trkpt lat="47.627902000" lon="11.398708000">
        <ele>1243.8</ele>
        <time>2013-10-14T10:40:50</time>
      </trkpt>
      <trkpt lat="47.627983000" lon="11.398463000">
        <ele>1242.8</ele>
        <time>2013-10-14T10:41:14</time>
      </trkpt>
      <trkpt lat="47.628093000" lon="11.398233000">
        <ele>1241.6</ele>
        <time>2013-10-14T10:41:52</time>
      </trkpt>
      <trkpt lat="47.628257000" lon="11.397943000">
        <ele>1239.9</ele>
        <time>2013-10-14T10:42:34</time>
      </trkpt>
      <trkpt lat="47.628320000" lon="11.397692000">
        <ele>1239.3</ele>
        <time>2013-10-14T10:43:05</time>
      </trkpt>
      <trkpt lat="47.628293000" lon="11.397412000">
        <ele>1238.2</ele>
        <time>2013-10-14T10:43:27</time>
      </trkpt>
      <trkpt lat="47.628348000" lon="11.397148000">
        <ele>1237.1</ele>
        <time>2013-10-14T10:43:50</time>
      </trkpt>
      <trkpt lat="47.628408000" lon="11.396863000">
        <ele>1236.1</ele>
        <time>2013-10-14T10:44:29</time>
      </trkpt>
      <trkpt lat="47.628418000" lon="11.396575000">
        <ele>1234.1</ele>
        <time>2013-10-14T10:44:53</time>
      </trkpt>
      <trkpt lat="47.628480000" lon="11.396315000">
        <ele>1230.3</ele>
        <time>2013-10-14T10:45:26</time>
      </trkpt>
      <trkpt lat="47.628572000" lon="11.396085000">
        <ele>1226.8</ele>
        <time>2013-10-14T10:45:55</time>
      </trkpt>
      <trkpt lat="47.628593000" lon="11.395817000">
        <ele>1224.7</ele>
        <time>2013-10-14T10:46:25</time>
      </trkpt>
      <trkpt lat="47.628632000" lon="11.395557000">
        <ele>1222.0</ele>
        <time>2013-10-14T10:46:46</time>
      </trkpt>
      <trkpt lat="47.628720000" lon="11.395243000">
        <ele>1219.2</ele>
        <time>2013-10-14T10:47:32</time>
      </trkpt>
      <trkpt lat="47.628752000" lon="11.394953000">
        <ele>1220.5</ele>
        <time>2013-10-14T10:48:09</time>
      </trkpt>
      <trkpt lat="47.628768000" lon="11.394673000">
        <ele>1221.0</ele>
        <time>2013-10-14T10:48:49</time>
      </trkpt>
      <trkpt lat="47.628745000" lon="11.394393000">
        <ele>1220.2</ele>
        <time>2013-10-14T10:49:09</time>
      </trkpt>
      <trkpt lat="47.628835000" lon="11.394157000">
        <ele>1217.8</ele>
        <time>2013-10-14T10:49:34</time>
      </trkpt>
      <trkpt lat="47.628887000" lon="11.393893000">
        <ele>1216.5</ele>
        <time>2013-10-14T10:50:01</time>
      </trkpt>
      <trkpt lat="47.628983000" lon="11.393655000">
        <ele>1214.6</ele>
        <time>2013-10-14T10:50:26</time>
      </trkpt>
      <trkpt lat="47.629080000" lon="11.393408000">
        <ele>1213.4</ele>
        <time>2013-10-14T10:50:55</time>
      </trkpt>
      <trkpt lat="47.629223000" lon="11.393247000">
        <ele>1210.7</ele>
        <time>2013-10-14T10:51:22</time>
      </trkpt>
      <trkpt lat="47.629308000" lon="11.392983000">
        <ele>1209.3</ele>
        <time>2013-10-14T10:51:42</time>
      </trkpt>
      <trkpt lat="47.629437000" lon="11.392655000">
        <ele>1209.0</ele>
        <time>2013-10-14T10:53:21</time>
      </trkpt>
      <trkpt lat="47.629320000" lon="11.392410000">
        <ele>1210.0</ele>
        <time>2013-10-14T10:53:51</time>
      </trkpt>
      <trkpt lat="47.629298000" lon="11.392142000">
        <ele>1210.4</ele>
        <time>2013-10-14T10:54:15</time>
      </trkpt>
      <trkpt lat="47.629322000" lon="11.391868000">
        <ele>1209.9</ele>
        <time>2013-10-14T10:54:36</time>
      </trkpt>
      <trkpt lat="47.629292000" lon="11.391548000">
        <ele>1209.6</ele>
        <time>2013-10-14T10:54:56</time>
      </trkpt>
      <trkpt lat="47.629258000" lon="11.391205000">
        <ele>1210.5</ele>
        <time>2013-10-14T10:55:16</time>
      </trkpt>
      <trkpt lat="47.629222000" lon="11.390937000">
        <ele>1211.5</ele>
        <time>2013-10-14T10:55:49</time>
      </trkpt>
      <trkpt lat="47.629217000" lon="11.390667000">
        <ele>1210.0</ele>
        <time>2013-10-14T10:56:15</time>
      </trkpt>
      <trkpt lat="47.629200000" lon="11.390397000">
        <ele>1207.0</ele>
        <time>2013-10-14T10:56:49</time>
      </trkpt>
      <trkpt lat="47.629208000" lon="11.390123000">
        <ele>1203.1</ele>
        <time>2013-10-14T10:57:15</time>
      </trkpt>
      <trkpt lat="47.629215000" lon="11.389857000">
        <ele>1197.7</ele>
        <time>2013-10-14T10:57:48</time>
      </trkpt>
      <trkpt lat="47.629205000" lon="11.389563000">
        <ele>1189.7</ele>
        <time>2013-10-14T10:58:29</time>
      </trkpt>
      <trkpt lat="47.629177000" lon="11.389253000">
        <ele>1184.7</ele>
        <time>2013-10-14T10:58:50</time>
      </trkpt>
      <trkpt lat="47.629213000" lon="11.388978000">
        <ele>1179.6</ele>
        <time>2013-10-14T10:59:12</time>
      </trkpt>
      <trkpt lat="47.629190000" lon="11.388705000">
        <ele>1176.0</ele>
        <time>2013-10-14T10:59:38</time>
      </trkpt>
      <trkpt lat="47.629192000" lon="11.388438000">
        <ele>1173.3</ele>
        <time>2013-10-14T11:00:00</time>
      </trkpt>
      <trkpt lat="47.629177000" lon="11.388162000">
        <ele>1171.8</ele>
        <time>2013-10-14T11:00:35</time>
      </trkpt>
      <trkpt lat="47.629192000" lon="11.387887000">
        <ele>1170.3</ele>
        <time>2013-10-14T11:00:57</time>
      </trkpt>
      <trkpt lat="47.629195000" lon="11.387618000">
        <ele>1168.5</ele>
        <time>2013-10-14T11:01:17</time>
      </trkpt>
      <trkpt lat="47.629113000" lon="11.387280000">
        <ele>1167.8</ele>
        <time>2013-10-14T11:01:37</time>
      </trkpt>
      <trkpt lat="47.629142000" lon="11.386990000">
        <ele>1165.3</ele>
        <time>2013-10-14T11:01:57</time>
      </trkpt>
      <trkpt lat="47.629188000" lon="11.386730000">
        <ele>1163.3</ele>
        <time>2013-10-14T11:02:19</time>
      </trkpt>
      <trkpt lat="47.629238000" lon="11.386473000">
        <ele>1160.8</ele>
        <time>2013-10-14T11:02:42</time>
      </trkpt>
      <trkpt lat="47.629268000" lon="11.386210000">
        <ele>1158.4</ele>
        <time>2013-10-14T11:03:04</time>
      </trkpt>
      <trkpt lat="47.629262000" lon="11.385937000">
        <ele>1156.6</ele>
        <time>2013-10-14T11:03:30</time>
      </trkpt>
      <trkpt lat="47.629330000" lon="11.385683000">
        <ele>1155.3</ele>
        <time>2013-10-14T11:03:52</time>
      </trkpt>
      <trkpt lat="47.629293000" lon="11.385420000">
        <ele>1153.5</ele>
        <time>2013-10-14T11:04:15</time>
      </trkpt>
      <trkpt lat="47.629252000" lon="11.385157000">
        <ele>1150.3</ele>
        <time>2013-10-14T11:04:40</time>
      </trkpt>
      <trkpt lat="47.629120000" lon="11.384973000">
        <ele>1145.5</ele>
        <time>2013-10-14T11:05:06</time>
      </trkpt>
      <trkpt lat="47.628938000" lon="11.385208000">
        <ele>1140.7</ele>
        <time>2013-10-14T11:05:26</time>
      </trkpt>
      <trkpt lat="47.628825000" lon="11.385565000">
        <ele>1137.7</ele>
        <time>2013-10-14T11:05:46</time>
      </trkpt>
      <trkpt lat="47.628740000" lon="11.385895000">
        <ele>1134.1</ele>
        <time>2013-10-14T11:06:06</time>
      </trkpt>
      <trkpt lat="47.628692000" lon="11.386273000">
        <ele>1131.8</ele>
        <time>2013-10-14T11:06:26</time>
      </trkpt>
      <trkpt lat="47.628665000" lon="11.386668000">
        <ele>1129.3</ele>
        <time>2013-10-14T11:06:46</time>
      </trkpt>
      <trkpt lat="47.628625000" lon="11.387028000">
        <ele>1127.7</ele>
        <time>2013-10-14T11:07:06</time>
      </trkpt>
      <trkpt lat="47.628597000" lon="11.387380000">
        <ele>1127.8</ele>
        <time>2013-10-14T11:07:26</time>
      </trkpt>
      <trkpt lat="47.628570000" lon="11.387787000">
        <ele>1126.6</ele>
        <time>2013-10-14T11:07:46</time>
      </trkpt>
      <trkpt lat="47.628505000" lon="11.388118000">
        <ele>1125.2</ele>
        <time>2013-10-14T11:08:06</time>
      </trkpt>
      <trkpt lat="47.628430000" lon="11.388437000">
        <ele>1122.5</ele>
        <time>2013-10-14T11:08:26</time>
      </trkpt>
      <trkpt lat="47.628295000" lon="11.388777000">
        <ele>1118.6</ele>
        <time>2013-10-14T11:08:46</time>
      </trkpt>
      <trkpt lat="47.628145000" lon="11.389060000">
        <ele>1113.5</ele>
        <time>2013-10-14T11:09:06</time>
      </trkpt>
      <trkpt lat="47.627928000" lon="11.389258000">
        <ele>1110.0</ele>
        <time>2013-10-14T11:09:26</time>
      </trkpt>
      <trkpt lat="47.627740000" lon="11.389437000">
        <ele>1106.1</ele>
        <time>2013-10-14T11:09:46</time>
      </trkpt>
      <trkpt lat="47.627553000" lon="11.389628000">
        <ele>1101.2</ele>
        <time>2013-10-14T11:10:06</time>
      </trkpt>
      <trkpt lat="47.627363000" lon="11.389812000">
        <ele>1095.4</ele>
        <time>2013-10-14T11:10:26</time>
      </trkpt>
      <trkpt lat="47.627152000" lon="11.389993000">
        <ele>1090.6</ele>
        <time>2013-10-14T11:10:46</time>
      </trkpt>
      <trkpt lat="47.626940000" lon="11.390232000">
        <ele>1087.7</ele>
        <time>2013-10-14T11:11:06</time>
      </trkpt>
      <trkpt lat="47.626762000" lon="11.390537000">
        <ele>1084.1</ele>
        <time>2013-10-14T11:11:26</time>
      </trkpt>
      <trkpt lat="47.626625000" lon="11.390837000">
        <ele>1083.0</ele>
        <time>2013-10-14T11:11:46</time>
      </trkpt>
      <trkpt lat="47.626533000" lon="11.391165000">
        <ele>1081.9</ele>
        <time>2013-10-14T11:12:06</time>
      </trkpt>
      <trkpt lat="47.626502000" lon="11.391440000">
        <ele>1080.8</ele>
        <time>2013-10-14T11:12:26</time>
      </trkpt>
      <trkpt lat="47.626447000" lon="11.391697000">
        <ele>1078.7</ele>
        <time>2013-10-14T11:12:48</time>
      </trkpt>
      <trkpt lat="47.626420000" lon="11.391960000">
        <ele>1076.2</ele>
        <time>2013-10-14T11:13:09</time>
      </trkpt>
      <trkpt lat="47.626443000" lon="11.392235000">
        <ele>1073.8</ele>
        <time>2013-10-14T11:13:31</time>
      </trkpt>
      <trkpt lat="47.626358000" lon="11.392482000">
        <ele>1071.9</ele>
        <time>2013-10-14T11:13:51</time>
      </trkpt>
      <trkpt lat="47.626245000" lon="11.392698000">
        <ele>1069.7</ele>
        <time>2013-10-14T11:14:11</time>
      </trkpt>
      <trkpt lat="47.626092000" lon="11.392867000">
        <ele>1067.0</ele>
        <time>2013-10-14T11:14:31</time>
      </trkpt>
      <trkpt lat="47.625970000" lon="11.393072000">
        <ele>1064.3</ele>
        <time>2013-10-14T11:15:13</time>
      </trkpt>
      <trkpt lat="47.625845000" lon="11.393282000">
        <ele>1063.1</ele>
        <time>2013-10-14T11:15:34</time>
      </trkpt>
      <trkpt lat="47.625747000" lon="11.393508000">
        <ele>1062.6</ele>
        <time>2013-10-14T11:15:55</time>
      </trkpt>
      <trkpt lat="47.625597000" lon="11.393675000">
        <ele>1062.2</ele>
        <time>2013-10-14T11:16:15</time>
      </trkpt>
      <trkpt lat="47.625460000" lon="11.393857000">
        <ele>1061.4</ele>
        <time>2013-10-14T11:16:37</time>
      </trkpt>
      <trkpt lat="47.625282000" lon="11.393912000">
        <ele>1060.9</ele>
        <time>2013-10-14T11:17:08</time>
      </trkpt>
      <trkpt lat="47.625178000" lon="11.394142000">
        <ele>1060.0</ele>
        <time>2013-10-14T11:17:34</time>
      </trkpt>
      <trkpt lat="47.625083000" lon="11.394383000">
        <ele>1058.8</ele>
        <time>2013-10-14T11:17:54</time>
      </trkpt>
      <trkpt lat="47.624960000" lon="11.394587000">
        <ele>1058.1</ele>
        <time>2013-10-14T11:18:26</time>
      </trkpt>
      <trkpt lat="47.624837000" lon="11.394782000">
        <ele>1057.1</ele>
        <time>2013-10-14T11:18:47</time>
      </trkpt>
      <trkpt lat="47.624820000" lon="11.395158000">
        <ele>1056.5</ele>
        <time>2013-10-14T11:19:07</time>
      </trkpt>
      <trkpt lat="47.624737000" lon="11.395408000">
        <ele>1056.9</ele>
        <time>2013-10-14T11:19:27</time>
      </trkpt>
      <trkpt lat="47.624535000" lon="11.395642000">
        <ele>1057.6</ele>
        <time>2013-10-14T11:19:47</time>
      </trkpt>
      <trkpt lat="47.624520000" lon="11.395983000">
        <ele>1057.6</ele>
        <time>2013-10-14T11:20:07</time>
      </trkpt>
      <trkpt lat="47.624550000" lon="11.396362000">
        <ele>1057.2</ele>
        <time>2013-10-14T11:20:27</time>
      </trkpt>
      <trkpt lat="47.624550000" lon="11.396635000">
        <ele>1057.0</ele>
        <time>2013-10-14T11:20:47</time>
      </trkpt>
      <trkpt lat="47.624555000" lon="11.396902000">
        <ele>1057.1</ele>
        <time>2013-10-14T11:21:07</time>
      </trkpt>
      <trkpt lat="47.624523000" lon="11.397290000">
        <ele>1058.4</ele>
        <time>2013-10-14T11:21:27</time>
      </trkpt>
      <trkpt lat="47.624552000" lon="11.397670000">
        <ele>1058.7</ele>
        <time>2013-10-14T11:21:47</time>
      </trkpt>
      <trkpt lat="47.624340000" lon="11.397762000">
        <ele>1058.5</ele>
        <time>2013-10-14T11:22:07</time>
      </trkpt>
      <trkpt lat="47.624072000" lon="11.397740000">
        <ele>1057.8</ele>
        <time>2013-10-14T11:22:27</time>
      </trkpt>
      <trkpt lat="47.623903000" lon="11.397852000">
        <ele>1054.4</ele>
        <time>2013-10-14T11:22:52</time>
      </trkpt>
      <trkpt lat="47.623722000" lon="11.397893000">
        <ele>1052.7</ele>
        <time>2013-10-14T11:23:20</time>
      </trkpt>
      <trkpt lat="47.623523000" lon="11.397928000">
        <ele>1053.1</ele>
        <time>2013-10-14T11:23:40</time>
      </trkpt>
      <trkpt lat="47.623362000" lon="11.398055000">
        <ele>1052.3</ele>
        <time>2013-10-14T11:24:20</time>
      </trkpt>
      <trkpt lat="47.623423000" lon="11.398487000">
        <ele>1049.3</ele>
        <time>2013-10-14T11:24:40</time>
      </trkpt>
      <trkpt lat="47.623408000" lon="11.398758000">
        <ele>1047.2</ele>
        <time>2013-10-14T11:25:03</time>
      </trkpt>
      <trkpt lat="47.623390000" lon="11.399035000">
        <ele>1045.6</ele>
        <time>2013-10-14T11:25:28</time>
      </trkpt>
      <trkpt lat="47.623360000" lon="11.399305000">
        <ele>1043.8</ele>
        <time>2013-10-14T11:25:57</time>
      </trkpt>
      <trkpt lat="47.623298000" lon="11.399560000">
        <ele>1042.6</ele>
        <time>2013-10-14T11:26:26</time>
      </trkpt>
      <trkpt lat="47.623198000" lon="11.399815000">
        <ele>1041.4</ele>
        <time>2013-10-14T11:26:46</time>
      </trkpt>
      <trkpt lat="47.623028000" lon="11.399932000">
        <ele>1039.9</ele>
        <time>2013-10-14T11:27:08</time>
      </trkpt>
      <trkpt lat="47.622870000" lon="11.400068000">
        <ele>1037.9</ele>
        <time>2013-10-14T11:27:28</time>
      </trkpt>
      <trkpt lat="47.622855000" lon="11.400387000">
        <ele>1034.8</ele>
        <time>2013-10-14T11:27:48</time>
      </trkpt>
      <trkpt lat="47.622735000" lon="11.400673000">
        <ele>1032.0</ele>
        <time>2013-10-14T11:28:11</time>
      </trkpt>
      <trkpt lat="47.622560000" lon="11.400800000">
        <ele>1028.9</ele>
        <time>2013-10-14T11:28:35</time>
      </trkpt>
      <trkpt lat="47.622382000" lon="11.400943000">
        <ele>1026.2</ele>
        <time>2013-10-14T11:28:55</time>
      </trkpt>
      <trkpt lat="47.622220000" lon="11.401065000">
        <ele>1022.1</ele>
        <time>2013-10-14T11:29:19</time>
      </trkpt>
      <trkpt lat="47.622150000" lon="11.401395000">
        <ele>1018.4</ele>
        <time>2013-10-14T11:29:39</time>
      </trkpt>
      <trkpt lat="47.622040000" lon="11.401608000">
        <ele>1015.8</ele>
        <time>2013-10-14T11:30:00</time>
      </trkpt>
      <trkpt lat="47.621843000" lon="11.401717000">
        <ele>1013.2</ele>
        <time>2013-10-14T11:30:20</time>
      </trkpt>
      <trkpt lat="47.621695000" lon="11.401897000">
        <ele>1011.3</ele>
        <time>2013-10-14T11:30:40</time>
      </trkpt>
      <trkpt lat="47.621468000" lon="11.401978000">
        <ele>1008.1</ele>
        <time>2013-10-14T11:31:00</time>
      </trkpt>
      <trkpt lat="47.621287000" lon="11.402010000">
        <ele>1004.0</ele>
        <time>2013-10-14T11:31:28</time>
      </trkpt>
      <trkpt lat="47.621028000" lon="11.402102000">
        <ele>999.6</ele>
        <time>2013-10-14T11:31:48</time>
      </trkpt>
      <trkpt lat="47.620852000" lon="11.402190000">
        <ele>994.3</ele>
        <time>2013-10-14T11:32:14</time>
      </trkpt>
      <trkpt lat="47.620642000" lon="11.402250000">
        <ele>991.0</ele>
        <time>2013-10-14T11:32:36</time>
      </trkpt>
      <trkpt lat="47.620458000" lon="11.402262000">
        <ele>986.0</ele>
        <time>2013-10-14T11:33:06</time>
      </trkpt>
      <trkpt lat="47.620273000" lon="11.402232000">
        <ele>985.0</ele>
        <time>2013-10-14T11:33:26</time>
      </trkpt>
      <trkpt lat="47.620088000" lon="11.402215000">
        <ele>981.4</ele>
        <time>2013-10-14T11:33:49</time>
      </trkpt>
      <trkpt lat="47.619887000" lon="11.402288000">
        <ele>976.0</ele>
        <time>2013-10-14T11:34:09</time>
      </trkpt>
      <trkpt lat="47.619722000" lon="11.402435000">
        <ele>970.3</ele>
        <time>2013-10-14T11:34:33</time>
      </trkpt>
      <trkpt lat="47.619548000" lon="11.402513000">
        <ele>964.7</ele>
        <time>2013-10-14T11:34:56</time>
      </trkpt>
      <trkpt lat="47.619365000" lon="11.402587000">
        <ele>958.2</ele>
        <time>2013-10-14T11:35:20</time>
      </trkpt>
      <trkpt lat="47.619238000" lon="11.402788000">
        <ele>952.7</ele>
        <time>2013-10-14T11:35:47</time>
      </trkpt>
      <trkpt lat="47.619053000" lon="11.402763000">
        <ele>947.6</ele>
        <time>2013-10-14T11:36:22</time>
      </trkpt>
      <trkpt lat="47.618900000" lon="11.402930000">
        <ele>942.8</ele>
        <time>2013-10-14T11:36:45</time>
      </trkpt>
      <trkpt lat="47.618823000" lon="11.403248000">
        <ele>939.0</ele>
        <time>2013-10-14T11:37:05</time>
      </trkpt>
      <trkpt lat="47.618777000" lon="11.403522000">
        <ele>934.6</ele>
        <time>2013-10-14T11:37:29</time>
      </trkpt>
      <trkpt lat="47.618600000" lon="11.403600000">
        <ele>931.0</ele>
        <time>2013-10-14T11:38:09</time>
      </trkpt>
      <trkpt lat="47.618548000" lon="11.403930000">
        <ele>931.3</ele>
        <time>2013-10-14T11:38:29</time>
      </trkpt>
      <trkpt lat="47.618402000" lon="11.404140000">
        <ele>930.6</ele>
        <time>2013-10-14T11:38:49</time>
      </trkpt>
      <trkpt lat="47.618367000" lon="11.404560000">
        <ele>928.6</ele>
        <time>2013-10-14T11:39:09</time>
      </trkpt>
      <trkpt lat="47.618260000" lon="11.404825000">
        <ele>927.1</ele>
        <time>2013-10-14T11:39:29</time>
      </trkpt>
      <trkpt lat="47.618058000" lon="11.405085000">
        <ele>926.4</ele>
        <time>2013-10-14T11:39:50</time>
      </trkpt>
      <trkpt lat="47.617955000" lon="11.405428000">
        <ele>925.4</ele>
        <time>2013-10-14T11:40:10</time>
      </trkpt>
      <trkpt lat="47.617943000" lon="11.405788000">
        <ele>925.0</ele>
        <time>2013-10-14T11:40:30</time>
      </trkpt>
      <trkpt lat="47.617983000" lon="11.406090000">
        <ele>924.0</ele>
        <time>2013-10-14T11:40:50</time>
      </trkpt>
      <trkpt lat="47.617833000" lon="11.406265000">
        <ele>915.6</ele>
        <time>2013-10-14T11:42:46</time>
      </trkpt>
      <trkpt lat="47.617647000" lon="11.406518000">
        <ele>915.8</ele>
        <time>2013-10-14T11:43:06</time>
      </trkpt>
      <trkpt lat="47.617482000" lon="11.406783000">
        <ele>914.3</ele>
        <time>2013-10-14T11:43:26</time>
      </trkpt>
      <trkpt lat="47.617325000" lon="11.407017000">
        <ele>912.7</ele>
        <time>2013-10-14T11:43:46</time>
      </trkpt>
      <trkpt lat="47.617162000" lon="11.407207000">
        <ele>910.8</ele>
        <time>2013-10-14T11:44:06</time>
      </trkpt>
      <trkpt lat="47.617012000" lon="11.407418000">
        <ele>908.7</ele>
        <time>2013-10-14T11:44:26</time>
      </trkpt>
      <trkpt lat="47.616837000" lon="11.407617000">
        <ele>905.7</ele>
        <time>2013-10-14T11:44:46</time>
      </trkpt>
      <trkpt lat="47.616675000" lon="11.407862000">
        <ele>902.6</ele>
        <time>2013-10-14T11:45:06</time>
      </trkpt>
      <trkpt lat="47.616523000" lon="11.408120000">
        <ele>899.4</ele>
        <time>2013-10-14T11:45:26</time>
      </trkpt>
      <trkpt lat="47.616347000" lon="11.408373000">
        <ele>896.8</ele>
        <time>2013-10-14T11:45:46</time>
      </trkpt>
      <trkpt lat="47.616222000" lon="11.408682000">
        <ele>894.0</ele>
        <time>2013-10-14T11:46:06</time>
      </trkpt>
      <trkpt lat="47.616100000" lon="11.408937000">
        <ele>891.4</ele>
        <time>2013-10-14T11:46:26</time>
      </trkpt>
      <trkpt lat="47.615917000" lon="11.409080000">
        <ele>889.0</ele>
        <time>2013-10-14T11:46:46</time>
      </trkpt>
      <trkpt lat="47.615767000" lon="11.409232000">
        <ele>886.4</ele>
        <time>2013-10-14T11:47:50</time>
      </trkpt>
      <trkpt lat="47.615663000" lon="11.409647000">
        <ele>887.0</ele>
        <time>2013-10-14T11:48:10</time>
      </trkpt>
      <trkpt lat="47.615533000" lon="11.409992000">
        <ele>886.6</ele>
        <time>2013-10-14T11:48:30</time>
      </trkpt>
      <trkpt lat="47.615485000" lon="11.410382000">
        <ele>886.1</ele>
        <time>2013-10-14T11:48:50</time>
      </trkpt>
      <trkpt lat="47.615442000" lon="11.410707000">
        <ele>885.6</ele>
        <time>2013-10-14T11:49:10</time>
      </trkpt>
      <trkpt lat="47.615333000" lon="11.410963000">
        <ele>882.6</ele>
        <time>2013-10-14T11:49:30</time>
      </trkpt>
      <trkpt lat="47.615262000" lon="11.411358000">
        <ele>877.2</ele>
        <time>2013-10-14T11:49:50</time>
      </trkpt>
      <trkpt lat="47.615243000" lon="11.411787000">
        <ele>873.0</ele>
        <time>2013-10-14T11:50:10</time>
      </trkpt>
      <trkpt lat="47.615203000" lon="11.412147000">
        <ele>868.7</ele>
        <time>2013-10-14T11:50:30</time>
      </trkpt>
      <trkpt lat="47.615113000" lon="11.412452000">
        <ele>864.4</ele>
        <time>2013-10-14T11:50:50</time>
      </trkpt>
      <trkpt lat="47.614918000" lon="11.412723000">
        <ele>861.3</ele>
        <time>2013-10-14T11:51:10</time>
      </trkpt>
      <trkpt lat="47.614817000" lon="11.413032000">
        <ele>859.0</ele>
        <time>2013-10-14T11:51:30</time>
      </trkpt>
      <trkpt lat="47.614893000" lon="11.413388000">
        <ele>856.0</ele>
        <time>2013-10-14T11:51:50</time>
      </trkpt>
      <trkpt lat="47.614952000" lon="11.413740000">
        <ele>853.6</ele>
        <time>2013-10-14T11:52:10</time>
      </trkpt>
      <trkpt lat="47.614980000" lon="11.414093000">
        <ele>851.6</ele>
        <time>2013-10-14T11:52:30</time>
      </trkpt>
      <trkpt lat="47.614937000" lon="11.414463000">
        <ele>852.1</ele>
        <time>2013-10-14T11:52:50</time>
      </trkpt>
      <trkpt lat="47.614878000" lon="11.414840000">
        <ele>850.8</ele>
        <time>2013-10-14T11:53:10</time>
      </trkpt>
      <trkpt lat="47.614818000" lon="11.415135000">
        <ele>850.0</ele>
        <time>2013-10-14T11:53:30</time>
      </trkpt>
      <trkpt lat="47.614757000" lon="11.415538000">
        <ele>847.1</ele>
        <time>2013-10-14T11:53:52</time>
      </trkpt>
      <trkpt lat="47.614698000" lon="11.415905000">
        <ele>845.2</ele>
        <time>2013-10-14T11:54:12</time>
      </trkpt>
      <trkpt lat="47.614558000" lon="11.416178000">
        <ele>842.0</ele>
        <time>2013-10-14T11:54:32</time>
      </trkpt>
      <trkpt lat="47.614288000" lon="11.416232000">
        <ele>837.7</ele>
        <time>2013-10-14T11:54:52</time>
      </trkpt>
      <trkpt lat="47.614067000" lon="11.416367000">
        <ele>835.5</ele>
        <time>2013-10-14T11:55:12</time>
      </trkpt>
      <trkpt lat="47.613887000" lon="11.416603000">
        <ele>832.7</ele>
        <time>2013-10-14T11:55:32</time>
      </trkpt>
      <trkpt lat="47.613745000" lon="11.416863000">
        <ele>831.6</ele>
        <time>2013-10-14T11:55:52</time>
      </trkpt>
      <trkpt lat="47.613597000" lon="11.417133000">
        <ele>829.0</ele>
        <time>2013-10-14T11:56:12</time>
      </trkpt>
      <trkpt lat="47.613437000" lon="11.417323000">
        <ele>826.8</ele>
        <time>2013-10-14T11:56:33</time>
      </trkpt>
      <trkpt lat="47.613395000" lon="11.417683000">
        <ele>825.7</ele>
        <time>2013-10-14T11:56:53</time>
      </trkpt>
      <trkpt lat="47.613243000" lon="11.417965000">
        <ele>823.7</ele>
        <time>2013-10-14T11:57:13</time>
      </trkpt>
      <trkpt lat="47.613125000" lon="11.418192000">
        <ele>821.1</ele>
        <time>2013-10-14T11:57:33</time>
      </trkpt>
      <trkpt lat="47.612948000" lon="11.418515000">
        <ele>819.5</ele>
        <time>2013-10-14T11:57:53</time>
      </trkpt>
      <trkpt lat="47.612813000" lon="11.418837000">
        <ele>818.2</ele>
        <time>2013-10-14T11:58:13</time>
      </trkpt>
      <trkpt lat="47.612630000" lon="11.419057000">
        <ele>812.3</ele>
        <time>2013-10-14T11:58:33</time>
      </trkpt>
      <trkpt lat="47.612402000" lon="11.419228000">
        <ele>808.1</ele>
        <time>2013-10-14T11:58:53</time>
      </trkpt>
      <trkpt lat="47.612333000" lon="11.419648000">
        <ele>803.0</ele>
        <time>2013-10-14T11:59:13</time>
      </trkpt>
      <trkpt lat="47.612207000" lon="11.419990000">
        <ele>800.2</ele>
        <time>2013-10-14T11:59:33</time>
      </trkpt>
      <trkpt lat="47.611987000" lon="11.420202000">
        <ele>798.8</ele>
        <time>2013-10-14T11:59:53</time>
      </trkpt>
      <trkpt lat="47.611763000" lon="11.420300000">
        <ele>798.4</ele>
        <time>2013-10-14T12:00:13</time>
      </trkpt>
      <trkpt lat="47.611678000" lon="11.420558000">
        <ele>798.1</ele>
        <time>2013-10-14T12:00:38</time>
      </trkpt>
      <trkpt lat="47.611552000" lon="11.420867000">
        <ele>798.4</ele>
        <time>2013-10-14T12:00:58</time>
      </trkpt>
      <trkpt lat="47.611397000" lon="11.421163000">
        <ele>797.6</ele>
        <time>2013-10-14T12:01:18</time>
      </trkpt>
      <trkpt lat="47.611238000" lon="11.421458000">
        <ele>795.7</ele>
        <time>2013-10-14T12:01:38</time>
      </trkpt>
      <trkpt lat="47.611103000" lon="11.421748000">
        <ele>795.7</ele>
        <time>2013-10-14T12:01:58</time>
      </trkpt>
      <trkpt lat="47.610997000" lon="11.422083000">
        <ele>797.6</ele>
        <time>2013-10-14T12:02:18</time>
      </trkpt>
      <trkpt lat="47.610817000" lon="11.422442000">
        <ele>799.0</ele>
        <time>2013-10-14T12:02:38</time>
      </trkpt>
      <trkpt lat="47.610632000" lon="11.422715000">
        <ele>800.3</ele>
        <time>2013-10-14T12:02:58</time>
      </trkpt>
      <trkpt lat="47.610488000" lon="11.422998000">
        <ele>800.5</ele>
        <time>2013-10-14T12:03:18</time>
      </trkpt>
      <trkpt lat="47.610280000" lon="11.423293000">
        <ele>800.1</ele>
        <time>2013-10-14T12:03:38</time>
      </trkpt>
      <trkpt lat="47.610182000" lon="11.423528000">
        <ele>800.2</ele>
        <time>2013-10-14T12:04:10</time>
      </trkpt>
      <trkpt lat="47.609990000" lon="11.423700000">
        <ele>798.5</ele>
        <time>2013-10-14T12:04:30</time>
      </trkpt>
      <trkpt lat="47.609873000" lon="11.423903000">
        <ele>794.2</ele>
        <time>2013-10-14T12:05:31</time>
      </trkpt>
      <trkpt lat="47.609728000" lon="11.424178000">
        <ele>793.1</ele>
        <time>2013-10-14T12:05:52</time>
      </trkpt>
      <trkpt lat="47.609528000" lon="11.424517000">
        <ele>793.0</ele>
        <time>2013-10-14T12:06:12</time>
      </trkpt>
      <trkpt lat="47.609358000" lon="11.424843000">
        <ele>792.3</ele>
        <time>2013-10-14T12:06:32</time>
      </trkpt>
      <trkpt lat="47.609200000" lon="11.425178000">
        <ele>791.0</ele>
        <time>2013-10-14T12:06:52</time>
      </trkpt>
      <trkpt lat="47.608987000" lon="11.425372000">
        <ele>790.2</ele>
        <time>2013-10-14T12:07:12</time>
      </trkpt>
      <trkpt lat="47.608823000" lon="11.425645000">
        <ele>788.1</ele>
        <time>2013-10-14T12:07:32</time>
      </trkpt>
      <trkpt lat="47.608745000" lon="11.426072000">
        <ele>785.5</ele>
        <time>2013-10-14T12:07:52</time>
      </trkpt>
      <trkpt lat="47.608640000" lon="11.426437000">
        <ele>784.2</ele>
        <time>2013-10-14T12:08:12</time>
      </trkpt>
      <trkpt lat="47.608492000" lon="11.426765000">
        <ele>783.3</ele>
        <time>2013-10-14T12:08:32</time>
      </trkpt>
      <trkpt lat="47.608323000" lon="11.427088000">
        <ele>782.0</ele>
        <time>2013-10-14T12:08:52</time>
      </trkpt>
      <trkpt lat="47.608070000" lon="11.427397000">
        <ele>781.6</ele>
        <time>2013-10-14T12:09:12</time>
      </trkpt>
      <trkpt lat="47.607890000" lon="11.427705000">
        <ele>782.2</ele>
        <time>2013-10-14T12:09:32</time>
      </trkpt>
      <trkpt lat="47.607678000" lon="11.427973000">
        <ele>782.3</ele>
        <time>2013-10-14T12:09:52</time>
      </trkpt>
      <trkpt lat="47.607452000" lon="11.428182000">
        <ele>781.9</ele>
        <time>2013-10-14T12:10:12</time>
      </trkpt>
      <trkpt lat="47.607277000" lon="11.428448000">
        <ele>779.8</ele>
        <time>2013-10-14T12:10:32</time>
      </trkpt>
      <trkpt lat="47.607200000" lon="11.428690000">
        <ele>777.4</ele>
        <time>2013-10-14T12:11:34</time>
      </trkpt>
      <trkpt lat="47.607067000" lon="11.428942000">
        <ele>776.2</ele>
        <time>2013-10-14T12:11:54</time>
      </trkpt>
      <trkpt lat="47.606910000" lon="11.429253000">
        <ele>775.9</ele>
        <time>2013-10-14T12:12:14</time>
      </trkpt>
      <trkpt lat="47.606805000" lon="11.429580000">
        <ele>776.1</ele>
        <time>2013-10-14T12:12:34</time>
      </trkpt>
      <trkpt lat="47.606722000" lon="11.429967000">
        <ele>774.0</ele>
        <time>2013-10-14T12:12:54</time>
      </trkpt>
      <trkpt lat="47.606657000" lon="11.430325000">
        <ele>772.6</ele>
        <time>2013-10-14T12:13:14</time>
      </trkpt>
      <trkpt lat="47.606593000" lon="11.430708000">
        <ele>770.8</ele>
        <time>2013-10-14T12:13:34</time>
      </trkpt>
      <trkpt lat="47.606520000" lon="11.431120000">
        <ele>770.2</ele>
        <time>2013-10-14T12:13:54</time>
      </trkpt>
      <trkpt lat="47.606427000" lon="11.431472000">
        <ele>770.3</ele>
        <time>2013-10-14T12:14:14</time>
      </trkpt>
      <trkpt lat="47.606342000" lon="11.431795000">
        <ele>769.4</ele>
        <time>2013-10-14T12:14:34</time>
      </trkpt>
      <trkpt lat="47.606222000" lon="11.432107000">
        <ele>768.9</ele>
        <time>2013-10-14T12:14:54</time>
      </trkpt>
      <trkpt lat="47.606218000" lon="11.432473000">
        <ele>767.7</ele>
        <time>2013-10-14T12:15:14</time>
      </trkpt>
      <trkpt lat="47.606300000" lon="11.432820000">
        <ele>765.9</ele>
        <time>2013-10-14T12:15:34</time>
      </trkpt>
      <trkpt lat="47.606338000" lon="11.432887000">
        <ele>771.4</ele>
        <time>2013-10-14T12:16:38</time>
      </trkpt>
    </trkseg>
  </trk>
</gpx>
